createdAt,value
2023-01-19T00:04:05.799Z,48.30
2023-01-19T00:08:59.635Z,48.06
2023-01-19T00:13:54.149Z,48.15
2023-01-19T00:18:48.214Z,48.27
2023-01-19T00:23:42.638Z,48.15
2023-01-19T00:28:35.654Z,48.13
2023-01-19T00:33:29.509Z,48.08
2023-01-19T00:38:23.577Z,48.14
2023-01-19T00:43:21.175Z,47.94
2023-01-19T00:48:14.376Z,48.26
2023-01-19T00:53:07.709Z,48.39
2023-01-19T00:58:02.076Z,48.12
2023-01-19T01:02:55.965Z,48.04
2023-01-19T01:07:49.912Z,48.21
2023-01-19T01:13:20.397Z,48.18
2023-01-19T01:17:57.130Z,48.19
2023-01-19T01:22:52.758Z,48.19
2023-01-19T01:27:45.853Z,48.13
2023-01-19T01:32:39.166Z,48.23
2023-01-19T01:37:33.106Z,47.90
2023-01-19T01:42:35.884Z,48.25
2023-01-19T01:47:50.429Z,47.92
2023-01-19T01:53:06.311Z,48.00
2023-01-19T01:58:05.616Z,48.15
2023-01-19T02:03:01.175Z,48.16
2023-01-19T02:08:37.288Z,47.90
2023-01-19T02:13:37.515Z,48.29
2023-01-19T02:18:32.541Z,48.09
2023-01-19T02:23:38.243Z,48.10
2023-01-19T02:28:31.722Z,48.10
2023-01-19T02:33:30.467Z,48.14
2023-01-19T02:38:27.728Z,47.88
2023-01-19T02:43:21.221Z,48.20
2023-01-19T02:48:14.864Z,47.83
2023-01-19T02:53:35.338Z,47.91
2023-01-19T02:58:36.312Z,47.99
2023-01-19T03:03:33.392Z,48.04
2023-01-19T03:08:33.424Z,47.93
2023-01-19T03:13:41.959Z,47.85
2023-01-19T03:19:14.620Z,47.88
2023-01-19T03:24:09.162Z,47.85
2023-01-19T03:29:03.859Z,48.01
2023-01-19T03:34:02.870Z,47.94
2023-01-19T03:38:58.642Z,47.99
2023-01-19T03:43:53.551Z,47.92
2023-01-19T03:48:49.322Z,47.79
2023-01-19T03:53:42.282Z,47.89
2023-01-19T03:58:36.379Z,47.78
2023-01-19T04:03:30.355Z,47.88
2023-01-19T04:08:23.570Z,47.99
2023-01-19T04:13:16.778Z,47.98
2023-01-19T04:18:10.547Z,48.26
2023-01-19T04:23:04.645Z,48.04
2023-01-19T04:28:00.268Z,47.95
2023-01-19T04:32:56.311Z,48.17
2023-01-19T04:37:49.741Z,47.95
2023-01-19T04:42:47.178Z,47.87
2023-01-19T04:47:43.306Z,47.93
2023-01-19T04:52:37.130Z,48.10
2023-01-19T04:57:30.936Z,48.20
2023-01-19T05:02:25.040Z,47.81
2023-01-19T05:07:18.283Z,48.03
2023-01-19T05:12:12.222Z,47.86
2023-01-19T05:17:04.808Z,47.94
2023-01-19T05:21:58.034Z,47.91
2023-01-19T05:26:51.765Z,47.84
2023-01-19T05:31:45.531Z,47.56
2023-01-19T05:36:38.726Z,47.64
2023-01-19T05:41:32.585Z,47.68
2023-01-19T05:46:26.068Z,47.56
2023-01-19T05:51:19.493Z,47.41
2023-01-19T05:56:13.815Z,47.64
2023-01-19T06:01:10.475Z,47.47
2023-01-19T06:06:03.801Z,47.33
2023-01-19T06:10:57.741Z,47.51
2023-01-19T06:15:58.455Z,47.43
2023-01-19T06:20:53.112Z,47.61
2023-01-19T06:25:47.379Z,47.24
2023-01-19T06:30:41.078Z,47.00
2023-01-19T06:35:36.619Z,46.95
2023-01-19T06:40:30.545Z,47.04
2023-01-19T06:45:23.821Z,47.15
2023-01-19T06:50:18.139Z,47.34
2023-01-19T06:55:12.125Z,47.17
2023-01-19T07:00:09.903Z,46.57
2023-01-19T07:05:03.102Z,45.93
2023-01-19T07:09:56.176Z,45.58
2023-01-19T07:14:50.311Z,45.17
2023-01-19T07:19:44.046Z,44.59
2023-01-19T07:24:38.163Z,44.07
2023-01-19T07:29:32.185Z,44.16
2023-01-19T07:34:26.301Z,44.38
2023-01-19T07:39:20.323Z,44.03
2023-01-19T07:44:14.394Z,44.04
2023-01-19T07:49:08.717Z,43.78
2023-01-19T07:54:01.749Z,43.65
2023-01-19T07:58:54.753Z,43.81
2023-01-19T08:03:51.389Z,42.94
2023-01-19T08:08:45.670Z,43.73
2023-01-19T08:13:40.143Z,42.22
2023-01-19T08:18:33.335Z,42.57
2023-01-19T08:23:28.610Z,41.73
2023-01-19T08:28:22.748Z,41.90
2023-01-19T08:33:16.902Z,41.26
2023-01-19T08:38:10.824Z,41.37
2023-01-19T08:43:07.876Z,41.12
2023-01-19T08:48:00.970Z,41.31
2023-01-19T08:52:57.907Z,40.81
2023-01-19T08:57:55.320Z,40.80
2023-01-19T09:02:48.513Z,40.55
2023-01-19T09:07:42.293Z,40.98
2023-01-19T09:12:36.172Z,40.60
2023-01-19T09:17:29.480Z,40.87
2023-01-19T09:22:27.188Z,40.65
2023-01-19T09:27:20.664Z,41.12
2023-01-19T09:32:13.932Z,42.15
2023-01-19T09:37:08.506Z,43.80
2023-01-19T09:42:25.523Z,44.29
2023-01-19T09:47:24.369Z,46.08
2023-01-19T09:52:19.019Z,45.67
2023-01-19T09:57:13.107Z,45.90
2023-01-19T10:02:20.135Z,46.21
2023-01-19T10:07:29.786Z,47.16
2023-01-19T10:13:03.845Z,47.03
2023-01-19T10:18:12.813Z,47.25
2023-01-19T10:23:20.439Z,47.69
2023-01-19T10:28:16.438Z,47.91
2023-01-19T10:33:14.348Z,48.26
2023-01-19T10:38:07.075Z,48.36
2023-01-19T10:43:00.971Z,49.09
2023-01-19T10:47:56.298Z,48.74
2023-01-19T10:52:55.224Z,48.79
2023-01-19T10:57:52.250Z,48.89
2023-01-19T11:02:51.659Z,49.49
2023-01-19T11:07:45.413Z,49.54
2023-01-19T11:12:43.894Z,49.61
2023-01-19T11:17:38.154Z,49.58
2023-01-19T11:22:33.852Z,49.82
2023-01-19T11:27:27.828Z,49.80
2023-01-19T11:32:24.075Z,49.89
2023-01-19T11:37:17.150Z,50.16
2023-01-19T11:42:13.282Z,49.99
2023-01-19T11:47:12.166Z,50.39
2023-01-19T11:52:25.131Z,50.39
2023-01-19T11:57:20.603Z,50.23
2023-01-19T12:02:28.596Z,50.26
2023-01-19T12:07:29.806Z,50.11
2023-01-19T12:12:33.598Z,50.37
2023-01-19T12:17:34.914Z,50.61
2023-01-19T12:22:29.423Z,51.58
2023-01-19T12:27:39.464Z,53.80
2023-01-19T12:32:35.209Z,55.89
2023-01-19T12:37:40.183Z,55.87
2023-01-19T12:42:34.615Z,54.87
2023-01-19T12:47:28.407Z,52.72
2023-01-19T12:52:41.653Z,53.00
2023-01-19T12:57:41.028Z,53.16
2023-01-19T13:02:45.722Z,53.11
2023-01-19T13:08:03.942Z,53.95
2023-01-19T13:13:21.195Z,54.43
2023-01-19T13:18:22.549Z,54.29
2023-01-19T13:23:22.345Z,54.47
2023-01-19T13:28:18.030Z,54.22
2023-01-19T13:33:19.733Z,54.13
2023-01-19T13:38:14.223Z,53.48
2023-01-19T13:43:28.878Z,53.91
2023-01-19T13:48:24.584Z,53.92
2023-01-19T13:53:19.786Z,54.23
2023-01-19T13:58:25.596Z,54.08
2023-01-19T14:03:40.822Z,54.05
2023-01-19T14:08:38.069Z,53.98
2023-01-19T14:13:40.907Z,53.74
2023-01-19T14:18:35.616Z,54.18
2023-01-19T14:23:48.163Z,54.23
2023-01-19T14:28:44.598Z,53.89
2023-01-19T14:33:47.794Z,53.56
2023-01-19T14:39:04.436Z,54.03
2023-01-19T14:43:59.570Z,53.63
2023-01-19T14:48:58.511Z,53.94
2023-01-19T14:53:56.855Z,53.87
2023-01-19T14:58:51.639Z,53.62
2023-01-19T15:03:46.107Z,53.80
2023-01-19T15:08:39.737Z,53.47
2023-01-19T15:13:33.249Z,53.74
2023-01-19T15:18:28.876Z,53.42
2023-01-19T15:23:22.796Z,53.39
2023-01-19T15:28:19.356Z,53.42
2023-01-19T15:33:23.802Z,53.51
2023-01-19T15:38:17.277Z,53.24
2023-01-19T15:43:32.967Z,53.27
2023-01-19T15:48:43.340Z,53.40
2023-01-19T15:53:37.577Z,53.36
2023-01-19T15:58:31.477Z,53.02
2023-01-19T16:03:26.596Z,53.05
2023-01-19T16:08:20.471Z,53.25
2023-01-19T16:13:14.859Z,52.94
2023-01-19T16:18:08.720Z,53.47
2023-01-19T16:23:14.394Z,53.30
2023-01-19T16:28:09.258Z,52.79
2023-01-19T16:33:03.085Z,51.40
2023-01-19T16:37:56.514Z,50.91
2023-01-19T16:42:49.917Z,49.81
2023-01-19T16:47:46.203Z,48.58
2023-01-19T16:52:39.396Z,48.33
2023-01-19T16:57:32.728Z,47.52
2023-01-19T17:02:26.319Z,48.37
2023-01-19T17:07:19.567Z,48.98
2023-01-19T17:12:13.565Z,49.22
2023-01-19T17:17:10.179Z,49.79
2023-01-19T17:22:04.395Z,50.06
2023-01-19T17:26:56.778Z,50.27
2023-01-19T17:31:52.179Z,50.62
2023-01-19T17:36:46.511Z,50.98
2023-01-19T17:41:39.939Z,51.04
2023-01-19T17:46:36.758Z,51.20
2023-01-19T17:51:30.418Z,51.21
2023-01-19T17:56:29.280Z,51.65
2023-01-19T18:01:41.040Z,51.37
2023-01-19T18:06:34.462Z,51.15
2023-01-19T18:11:28.570Z,51.19
2023-01-19T18:16:27.017Z,51.17
2023-01-19T18:21:21.938Z,51.24
2023-01-19T18:26:20.620Z,51.30
2023-01-19T18:31:16.200Z,51.43
2023-01-19T18:36:10.196Z,51.45
2023-01-19T18:41:07.726Z,51.59
2023-01-19T18:46:00.587Z,51.57
2023-01-19T18:50:55.184Z,51.54
2023-01-19T18:55:56.762Z,51.85
2023-01-19T19:00:50.436Z,51.70
2023-01-19T19:05:45.060Z,51.74
2023-01-19T19:10:41.164Z,51.65
2023-01-19T19:15:35.336Z,51.68
2023-01-19T19:20:28.589Z,51.37
2023-01-19T19:25:21.675Z,51.77
2023-01-19T19:30:16.096Z,51.48
2023-01-19T19:35:09.046Z,51.59
2023-01-19T19:40:02.440Z,51.56
2023-01-19T19:44:56.185Z,51.62
2023-01-19T19:49:49.020Z,51.42
2023-01-19T19:54:43.041Z,51.64
2023-01-19T19:59:36.944Z,51.44
2023-01-19T20:04:31.070Z,51.34
2023-01-19T20:09:25.633Z,51.60
2023-01-19T20:14:19.341Z,51.57
2023-01-19T20:19:13.270Z,51.72
2023-01-19T20:24:18.191Z,51.74
2023-01-19T20:29:11.698Z,51.98
2023-01-19T20:34:07.500Z,51.83
2023-01-19T20:39:03.004Z,51.84
2023-01-19T20:43:56.805Z,51.78
2023-01-19T20:48:53.426Z,51.90
2023-01-19T20:53:46.616Z,52.20
2023-01-19T20:58:39.912Z,52.16
2023-01-19T21:03:32.000Z,52.21
2023-01-19T21:08:25.932Z,52.34
2023-01-19T21:13:18.948Z,52.21
2023-01-19T21:18:12.849Z,52.24
2023-01-19T21:23:06.051Z,52.28
2023-01-19T21:27:59.794Z,52.16
2023-01-19T21:32:53.182Z,52.19
2023-01-19T21:37:47.942Z,52.53
2023-01-19T21:42:41.323Z,52.45
2023-01-19T21:47:37.623Z,52.36
2023-01-19T21:52:32.000Z,52.38
2023-01-19T21:57:26.148Z,52.31
2023-01-19T22:02:37.727Z,52.43
2023-01-19T22:07:31.945Z,52.46
2023-01-19T22:12:26.124Z,52.33
2023-01-19T22:17:19.682Z,52.43
2023-01-19T22:22:13.374Z,52.20
2023-01-19T22:27:07.052Z,52.46
2023-01-19T22:32:00.766Z,52.40
2023-01-19T22:36:54.036Z,52.31
2023-01-19T22:41:47.692Z,52.38
2023-01-19T22:46:40.721Z,52.54
2023-01-19T22:51:35.018Z,52.24
2023-01-19T22:56:30.592Z,51.90
2023-01-19T23:01:26.378Z,51.99
2023-01-19T23:06:41.042Z,51.66
2023-01-19T23:11:36.822Z,51.55
2023-01-19T23:16:30.829Z,51.63
2023-01-19T23:21:26.385Z,51.28
2023-01-19T23:26:20.627Z,51.36
2023-01-19T23:31:19.486Z,51.34
2023-01-19T23:36:14.034Z,51.21
2023-01-19T23:41:07.830Z,51.06
2023-01-19T23:46:06.008Z,51.15
2023-01-19T23:50:58.506Z,51.06
2023-01-19T23:55:52.489Z,51.15
